Independence, CA (93526)

7:31 AM PDT on April 18, 2015 (GMT -0700)
Fort Independence | | Change Station
CLOSE
Current Station
Personal Weather Station
Location: Independence, CA
Elevation: 3980 ft
Nearby Weather Stations

Elev 3980 ft 36.83 °N, 118.22 °W | Updated 17 seconds ago

Clear
Clear
58.7 °F
Feels Like 58.7 °F
N
6.9
Wind Variable Wind from WNW
Gusts 6.9 mph

Today
High -- | Low -- °F
--% Chance of Precip.
Yesterday
High -- | Low -- °F
Precip. -- in
6:15 AM 7:30 PM
Waning Crescent, 0% visible
Pressure 30.06 in
Visibility 10.0 miles
Clouds Clear
Dew Point 6 °F
Humidity 12%
Rainfall 0.00 in
Snow Depth Not available.
UV 0 out of 12
Pollen 9.20 out of 12
Air Quality Not available.
Flu Activity Sporadic
METAR KBIH 181356Z AUTO 36005KT 10SM CLR 02/M15 A3013 RMK AO2 SLP177 T00171150

More Conditions Fewer Conditions

Pressure 30.06 in
Visibility 10.0 miles
Clouds Clear
Dew Point 6 °F
Humidity 12%
Rainfall 0.00 in
Snow Depth Not available.
UV 0 out of 12
Pollen 9.20 out of 12
Air Quality Not available.
Flu Activity Sporadic
METAR KBIH 181356Z AUTO 36005KT 10SM CLR 02/M15 A3013 RMK AO2 SLP177 T00171150

More Conditions Fewer Conditions

10-Day Weather Forecast

Almanac

Astronomy

Apr. 18, 2015 Rise Set
Actual Time
Civil Twilight
Nautical Twilight
Astronomical Twilight
Moon
Length of Visible Light
Length of Day
Tomorrow will be .
, % of the Moon is Illuminated

Today's Extremes

State Highs State Lows

Community

WunderPhotos

Upload Photos

1,814,417 photos uploaded!

WunderBlogs® & News

Nearby

Air Quality

  Air Quality AQ Index Pollutant
Not available.

Snow Depth

Station Depth Elevation

Earthquake Activity

City Distance Mag. Time & Date
Minimum magnitude displayed is 2.5.

Coastal Water Temperatures

Place Temperature

Stations

Nearby Weather Stations

Station Location Temp. Windchill Dew Point Humidity Wind Precip. Elev Updated Type